sensor_id;sensor_type;location;lat;lon;timestamp;pressure;altitude;pressure_sealevel;temperature;humidity
63281;BME280;49406;51.044;3.766;2024-01-25T00:01:25;103038.27;;;9.08;100.00
63281;BME280;49406;51.044;3.766;2024-01-25T00:03:59;103039.28;;;8.96;100.00
63281;BME280;49406;51.044;3.766;2024-01-25T00:06:34;103038.48;;;8.88;100.00
63281;BME280;49406;51.044;3.766;2024-01-25T00:09:09;103047.56;;;8.88;100.00
63281;BME280;49406;51.044;3.766;2024-01-25T00:11:43;103039.98;;;8.86;100.00
63281;BME280;49406;51.044;3.766;2024-01-25T00:14:18;103045.67;;;8.82;100.00
63281;BME280;49406;51.044;3.766;2024-01-25T00:16:52;103045.54;;;8.79;100.00
63281;BME280;49406;51.044;3.766;2024-01-25T00:19:27;103050.27;;;8.76;100.00
63281;BME280;49406;51.044;3.766;2024-01-25T00:22:02;103052.02;;;8.72;100.00
63281;BME280;49406;51.044;3.766;2024-01-25T00:24:36;103046.61;;;8.69;100.00
63281;BME280;49406;51.044;3.766;2024-01-25T00:27:11;103042.51;;;8.60;100.00
63281;BME280;49406;51.044;3.766;2024-01-25T00:29:45;103036.48;;;8.55;100.00
63281;BME280;49406;51.044;3.766;2024-01-25T00:32:20;103032.15;;;8.55;100.00
63281;BME280;49406;51.044;3.766;2024-01-25T00:34:55;103036.75;;;8.54;100.00
63281;BME280;49406;51.044;3.766;2024-01-25T00:37:31;103036.96;;;8.51;100.00
63281;BME280;49406;51.044;3.766;2024-01-25T00:40:07;103034.10;;;8.50;100.00
63281;BME280;49406;51.044;3.766;2024-01-25T00:42:45;103023.64;;;8.46;100.00
63281;BME280;49406;51.044;3.766;2024-01-25T00:45:23;103027.55;;;8.40;100.00
63281;BME280;49406;51.044;3.766;2024-01-25T00:47:59;103042.47;;;8.39;100.00
63281;BME280;49406;51.044;3.766;2024-01-25T00:50:34;103041.55;;;8.35;100.00
63281;BME280;49406;51.044;3.766;2024-01-25T00:53:10;103037.92;;;8.33;100.00
63281;BME280;49406;51.044;3.766;2024-01-25T00:55:46;103040.58;;;8.27;100.00
63281;BME280;49406;51.044;3.766;2024-01-25T00:58:21;103046.92;;;8.29;100.00
63281;BME280;49406;51.044;3.766;2024-01-25T01:00:57;103048.50;;;8.29;100.00
63281;BME280;49406;51.044;3.766;2024-01-25T01:03:32;103047.84;;;8.26;100.00
63281;BME280;49406;51.044;3.766;2024-01-25T01:06:09;103046.71;;;8.22;100.00
63281;BME280;49406;51.044;3.766;2024-01-25T01:08:44;103044.20;;;8.17;100.00
63281;BME280;49406;51.044;3.766;2024-01-25T01:11:19;103039.44;;;8.06;100.00
63281;BME280;49406;51.044;3.766;2024-01-25T01:13:54;103042.69;;;7.98;100.00
63281;BME280;49406;51.044;3.766;2024-01-25T01:16:28;103055.80;;;8.02;100.00
63281;BME280;49406;51.044;3.766;2024-01-25T01:19:06;103065.55;;;8.02;100.00
63281;BME280;49406;51.044;3.766;2024-01-25T01:21:40;103056.71;;;8.00;100.00
63281;BME280;49406;51.044;3.766;2024-01-25T01:24:17;103042.95;;;7.93;100.00
63281;BME280;49406;51.044;3.766;2024-01-25T01:26:51;103038.50;;;7.82;100.00
63281;BME280;49406;51.044;3.766;2024-01-25T01:29:26;103050.52;;;7.79;100.00
63281;BME280;49406;51.044;3.766;2024-01-25T01:32:00;103065.02;;;7.79;100.00
63281;BME280;49406;51.044;3.766;2024-01-25T01:34:35;103063.92;;;7.79;100.00
63281;BME280;49406;51.044;3.766;2024-01-25T01:37:10;103058.68;;;7.78;100.00
63281;BME280;49406;51.044;3.766;2024-01-25T01:39:45;103058.66;;;7.72;100.00
63281;BME280;49406;51.044;3.766;2024-01-25T01:42:19;103059.58;;;7.66;100.00
63281;BME280;49406;51.044;3.766;2024-01-25T01:44:54;103056.64;;;7.60;100.00
63281;BME280;49406;51.044;3.766;2024-01-25T01:47:28;103053.22;;;7.55;100.00
63281;BME280;49406;51.044;3.766;2024-01-25T01:50:03;103059.77;;;7.51;100.00
63281;BME280;49406;51.044;3.766;2024-01-25T01:52:38;103064.52;;;7.42;100.00
63281;BME280;49406;51.044;3.766;2024-01-25T01:55:14;103066.61;;;7.45;100.00
63281;BME280;49406;51.044;3.766;2024-01-25T01:57:49;103056.95;;;7.47;100.00
63281;BME280;49406;51.044;3.766;2024-01-25T02:00:23;103049.92;;;7.43;100.00
63281;BME280;49406;51.044;3.766;2024-01-25T02:02:56;103051.85;;;7.34;100.00
63281;BME280;49406;51.044;3.766;2024-01-25T02:05:29;103060.33;;;7.27;100.00
63281;BME280;49406;51.044;3.766;2024-01-25T02:08:06;103057.71;;;7.21;100.00
63281;BME280;49406;51.044;3.766;2024-01-25T02:10:41;103054.84;;;7.14;100.00
63281;BME280;49406;51.044;3.766;2024-01-25T02:13:16;103062.89;;;7.08;100.00
63281;BME280;49406;51.044;3.766;2024-01-25T02:15:50;103059.40;;;6.96;100.00
63281;BME280;49406;51.044;3.766;2024-01-25T02:18:25;103059.64;;;6.85;100.00
63281;BME280;49406;51.044;3.766;2024-01-25T02:21:00;103058.10;;;6.77;100.00
63281;BME280;49406;51.044;3.766;2024-01-25T02:23:35;103061.34;;;6.78;100.00
63281;BME280;49406;51.044;3.766;2024-01-25T02:26:09;103058.30;;;6.80;100.00
63281;BME280;49406;51.044;3.766;2024-01-25T02:28:44;103048.46;;;6.75;100.00
63281;BME280;49406;51.044;3.766;2024-01-25T02:31:18;103053.67;;;6.70;100.00
63281;BME280;49406;51.044;3.766;2024-01-25T02:33:53;103060.78;;;6.63;100.00
63281;BME280;49406;51.044;3.766;2024-01-25T02:36:27;103067.50;;;6.59;100.00
63281;BME280;49406;51.044;3.766;2024-01-25T02:39:02;103061.80;;;6.57;100.00
63281;BME280;49406;51.044;3.766;2024-01-25T02:41:37;103049.98;;;6.49;100.00
63281;BME280;49406;51.044;3.766;2024-01-25T02:44:13;103044.92;;;6.37;100.00
63281;BME280;49406;51.044;3.766;2024-01-25T02:46:47;103055.59;;;6.26;100.00
63281;BME280;49406;51.044;3.766;2024-01-25T02:49:22;103069.39;;;6.22;100.00
63281;BME280;49406;51.044;3.766;2024-01-25T02:51:57;103069.03;;;6.16;100.00
63281;BME280;49406;51.044;3.766;2024-01-25T02:54:35;103066.74;;;6.13;100.00
63281;BME280;49406;51.044;3.766;2024-01-25T02:57:10;103062.94;;;6.13;100.00
63281;BME280;49406;51.044;3.766;2024-01-25T02:59:45;103067.40;;;6.06;100.00
63281;BME280;49406;51.044;3.766;2024-01-25T03:02:20;103065.77;;;5.95;100.00
63281;BME280;49406;51.044;3.766;2024-01-25T03:04:55;103078.32;;;5.90;100.00
63281;BME280;49406;51.044;3.766;2024-01-25T03:07:29;103079.91;;;5.85;100.00
63281;BME280;49406;51.044;3.766;2024-01-25T03:10:05;103078.02;;;5.86;100.00
63281;BME280;49406;51.044;3.766;2024-01-25T03:12:39;103071.54;;;5.87;100.00
63281;BME280;49406;51.044;3.766;2024-01-25T03:15:14;103073.14;;;5.80;100.00
63281;BME280;49406;51.044;3.766;2024-01-25T03:17:49;103070.17;;;5.65;100.00
63281;BME280;49406;51.044;3.766;2024-01-25T03:20:24;103071.20;;;5.52;100.00
63281;BME280;49406;51.044;3.766;2024-01-25T03:22:58;103069.95;;;5.46;100.00
63281;BME280;49406;51.044;3.766;2024-01-25T03:25:33;103063.56;;;5.41;100.00
63281;BME280;49406;51.044;3.766;2024-01-25T03:28:08;103056.51;;;5.32;100.00
63281;BME280;49406;51.044;3.766;2024-01-25T03:30:44;103061.34;;;5.21;100.00
63281;BME280;49406;51.044;3.766;2024-01-25T03:33:19;103068.95;;;5.23;100.00
63281;BME280;49406;51.044;3.766;2024-01-25T03:35:53;103067.90;;;5.15;100.00
63281;BME280;49406;51.044;3.766;2024-01-25T03:38:28;103061.15;;;5.12;100.00
63281;BME280;49406;51.044;3.766;2024-01-25T03:41:03;103048.17;;;5.02;100.00
63281;BME280;49406;51.044;3.766;2024-01-25T03:43:37;103042.66;;;5.05;100.00
63281;BME280;49406;51.044;3.766;2024-01-25T03:46:12;103050.52;;;5.11;100.00
63281;BME280;49406;51.044;3.766;2024-01-25T03:48:47;103051.13;;;5.10;100.00
63281;BME280;49406;51.044;3.766;2024-01-25T03:51:21;103059.38;;;5.17;100.00
63281;BME280;49406;51.044;3.766;2024-01-25T03:53:57;103053.48;;;5.18;100.00
63281;BME280;49406;51.044;3.766;2024-01-25T03:56:31;103044.53;;;5.13;100.00
63281;BME280;49406;51.044;3.766;2024-01-25T03:59:06;103044.61;;;5.03;100.00
63281;BME280;49406;51.044;3.766;2024-01-25T04:01:45;103058.56;;;4.97;100.00
63281;BME280;49406;51.044;3.766;2024-01-25T04:04:20;103067.89;;;4.99;100.00
63281;BME280;49406;51.044;3.766;2024-01-25T04:06:54;103068.88;;;5.03;100.00
63281;BME280;49406;51.044;3.766;2024-01-25T04:09:29;103057.38;;;5.13;100.00
63281;BME280;49406;51.044;3.766;2024-01-25T04:12:04;103041.16;;;5.11;100.00
63281;BME280;49406;51.044;3.766;2024-01-25T04:14:39;103028.38;;;5.07;100.00
63281;BME280;49406;51.044;3.766;2024-01-25T04:17:13;103031.27;;;5.08;100.00
63281;BME280;49406;51.044;3.766;2024-01-25T04:19:48;103051.02;;;5.13;100.00
63281;BME280;49406;51.044;3.766;2024-01-25T04:22:23;103059.03;;;5.22;100.00
63281;BME280;49406;51.044;3.766;2024-01-25T04:24:57;103045.59;;;5.20;100.00
63281;BME280;49406;51.044;3.766;2024-01-25T04:27:32;103030.86;;;5.19;100.00
63281;BME280;49406;51.044;3.766;2024-01-25T04:30:08;103028.34;;;5.08;100.00
63281;BME280;49406;51.044;3.766;2024-01-25T04:32:43;103038.96;;;5.02;100.00
63281;BME280;49406;51.044;3.766;2024-01-25T04:35:18;103056.76;;;5.14;100.00
63281;BME280;49406;51.044;3.766;2024-01-25T04:37:53;103062.85;;;5.20;100.00
63281;BME280;49406;51.044;3.766;2024-01-25T04:40:27;103060.33;;;5.19;100.00
63281;BME280;49406;51.044;3.766;2024-01-25T04:43:02;103049.45;;;5.11;100.00
63281;BME280;49406;51.044;3.766;2024-01-25T04:45:36;103040.73;;;5.02;100.00
63281;BME280;49406;51.044;3.766;2024-01-25T04:48:11;103037.23;;;4.94;100.00
63281;BME280;49406;51.044;3.766;2024-01-25T04:50:45;103036.76;;;4.89;100.00
63281;BME280;49406;51.044;3.766;2024-01-25T04:53:20;103037.41;;;4.91;100.00
63281;BME280;49406;51.044;3.766;2024-01-25T04:55:55;103033.76;;;4.91;100.00
63281;BME280;49406;51.044;3.766;2024-01-25T04:58:30;103033.22;;;4.91;100.00
63281;BME280;49406;51.044;3.766;2024-01-25T05:01:05;103038.69;;;4.87;100.00
63281;BME280;49406;51.044;3.766;2024-01-25T05:03:40;103040.21;;;4.76;100.00
63281;BME280;49406;51.044;3.766;2024-01-25T05:06:14;103050.06;;;4.66;100.00
63281;BME280;49406;51.044;3.766;2024-01-25T05:08:49;103063.81;;;4.59;100.00
63281;BME280;49406;51.044;3.766;2024-01-25T05:11:23;103072.88;;;4.55;100.00
63281;BME280;49406;51.044;3.766;2024-01-25T05:13:58;103072.58;;;4.58;100.00
63281;BME280;49406;51.044;3.766;2024-01-25T05:16:32;103070.79;;;4.57;100.00
63281;BME280;49406;51.044;3.766;2024-01-25T05:19:08;103068.31;;;4.51;100.00
63281;BME280;49406;51.044;3.766;2024-01-25T05:21:43;103073.20;;;4.46;100.00
63281;BME280;49406;51.044;3.766;2024-01-25T05:24:17;103074.38;;;4.46;100.00
63281;BME280;49406;51.044;3.766;2024-01-25T05:26:52;103074.74;;;4.46;100.00
63281;BME280;49406;51.044;3.766;2024-01-25T05:29:26;103067.33;;;4.47;100.00
63281;BME280;49406;51.044;3.766;2024-01-25T05:32:01;103065.27;;;4.44;100.00
63281;BME280;49406;51.044;3.766;2024-01-25T05:34:35;103062.80;;;4.39;100.00
63281;BME280;49406;51.044;3.766;2024-01-25T05:37:10;103056.95;;;4.35;100.00
63281;BME280;49406;51.044;3.766;2024-01-25T05:39:45;103068.05;;;4.32;100.00
63281;BME280;49406;51.044;3.766;2024-01-25T05:42:19;103072.41;;;4.30;100.00
63281;BME280;49406;51.044;3.766;2024-01-25T05:44:54;103076.02;;;4.32;100.00
63281;BME280;49406;51.044;3.766;2024-01-25T05:47:28;103069.52;;;4.29;100.00
63281;BME280;49406;51.044;3.766;2024-01-25T05:50:03;103067.88;;;4.32;100.00
63281;BME280;49406;51.044;3.766;2024-01-25T05:52:38;103065.73;;;4.29;100.00
63281;BME280;49406;51.044;3.766;2024-01-25T05:55:13;103065.18;;;4.26;100.00
63281;BME280;49406;51.044;3.766;2024-01-25T05:57:48;103072.50;;;4.24;100.00
63281;BME280;49406;51.044;3.766;2024-01-25T06:00:23;103074.06;;;4.29;100.00
63281;BME280;49406;51.044;3.766;2024-01-25T06:02:58;103065.80;;;4.32;100.00
63281;BME280;49406;51.044;3.766;2024-01-25T06:05:32;103060.36;;;4.36;100.00
63281;BME280;49406;51.044;3.766;2024-01-25T06:08:07;103056.55;;;4.34;100.00
63281;BME280;49406;51.044;3.766;2024-01-25T06:10:42;103054.48;;;4.32;100.00
63281;BME280;49406;51.044;3.766;2024-01-25T06:13:16;103060.05;;;4.34;100.00
63281;BME280;49406;51.044;3.766;2024-01-25T06:15:51;103073.27;;;4.45;100.00
63281;BME280;49406;51.044;3.766;2024-01-25T06:18:26;103080.90;;;4.55;100.00
63281;BME280;49406;51.044;3.766;2024-01-25T06:21:00;103086.13;;;4.64;100.00
63281;BME280;49406;51.044;3.766;2024-01-25T06:23:35;103078.99;;;4.70;100.00
63281;BME280;49406;51.044;3.766;2024-01-25T06:26:09;103075.04;;;4.71;100.00
63281;BME280;49406;51.044;3.766;2024-01-25T06:28:44;103068.30;;;4.82;100.00
63281;BME280;49406;51.044;3.766;2024-01-25T06:31:19;103070.91;;;4.89;100.00
63281;BME280;49406;51.044;3.766;2024-01-25T06:33:53;103074.06;;;4.90;100.00
63281;BME280;49406;51.044;3.766;2024-01-25T06:36:28;103078.53;;;4.95;100.00
63281;BME280;49406;51.044;3.766;2024-01-25T06:39:03;103075.84;;;5.04;100.00
63281;BME280;49406;51.044;3.766;2024-01-25T06:41:38;103071.72;;;5.12;100.00
63281;BME280;49406;51.044;3.766;2024-01-25T06:44:13;103068.29;;;5.18;100.00
63281;BME280;49406;51.044;3.766;2024-01-25T06:46:48;103069.10;;;5.20;100.00
63281;BME280;49406;51.044;3.766;2024-01-25T06:49:22;103061.42;;;5.30;100.00
63281;BME280;49406;51.044;3.766;2024-01-25T06:51:57;103062.41;;;5.34;100.00
63281;BME280;49406;51.044;3.766;2024-01-25T06:54:31;103067.48;;;5.30;100.00
63281;BME280;49406;51.044;3.766;2024-01-25T06:57:06;103069.48;;;5.18;100.00
63281;BME280;49406;51.044;3.766;2024-01-25T06:59:41;103070.05;;;5.08;100.00
63281;BME280;49406;51.044;3.766;2024-01-25T07:02:15;103057.20;;;5.00;100.00
63281;BME280;49406;51.044;3.766;2024-01-25T07:04:50;103058.03;;;5.04;100.00
63281;BME280;49406;51.044;3.766;2024-01-25T07:07:26;103057.89;;;5.02;100.00
63281;BME280;49406;51.044;3.766;2024-01-25T07:10:00;103057.41;;;4.95;100.00
63281;BME280;49406;51.044;3.766;2024-01-25T07:12:35;103060.48;;;4.91;100.00
63281;BME280;49406;51.044;3.766;2024-01-25T07:15:10;103068.88;;;4.93;100.00
63281;BME280;49406;51.044;3.766;2024-01-25T07:17:45;103070.47;;;4.83;100.00
63281;BME280;49406;51.044;3.766;2024-01-25T07:20:19;103073.95;;;4.75;100.00
63281;BME280;49406;51.044;3.766;2024-01-25T07:22:54;103068.92;;;4.73;100.00
63281;BME280;49406;51.044;3.766;2024-01-25T07:25:28;103069.61;;;4.68;100.00
63281;BME280;49406;51.044;3.766;2024-01-25T07:28:03;103070.65;;;4.68;100.00
63281;BME280;49406;51.044;3.766;2024-01-25T07:30:38;103065.59;;;4.67;100.00
63281;BME280;49406;51.044;3.766;2024-01-25T07:33:13;103059.79;;;4.73;100.00
63281;BME280;49406;51.044;3.766;2024-01-25T07:35:47;103057.48;;;4.83;100.00
63281;BME280;49406;51.044;3.766;2024-01-25T07:38:22;103059.45;;;4.92;100.00
63281;BME280;49406;51.044;3.766;2024-01-25T07:40:56;103066.89;;;5.02;100.00
63281;BME280;49406;51.044;3.766;2024-01-25T07:43:31;103062.40;;;5.02;100.00
63281;BME280;49406;51.044;3.766;2024-01-25T07:46:06;103059.15;;;5.10;100.00
63281;BME280;49406;51.044;3.766;2024-01-25T07:48:41;103056.59;;;5.11;100.00
63281;BME280;49406;51.044;3.766;2024-01-25T07:51:15;103046.59;;;5.23;100.00
63281;BME280;49406;51.044;3.766;2024-01-25T07:53:50;103044.78;;;5.35;100.00
63281;BME280;49406;51.044;3.766;2024-01-25T07:56:25;103041.83;;;5.46;100.00
63281;BME280;49406;51.044;3.766;2024-01-25T07:58:59;103046.58;;;5.52;100.00
63281;BME280;49406;51.044;3.766;2024-01-25T08:01:34;103049.97;;;5.64;100.00
63281;BME280;49406;51.044;3.766;2024-01-25T08:04:08;103059.42;;;5.80;100.00
63281;BME280;49406;51.044;3.766;2024-01-25T08:06:43;103057.33;;;5.88;100.00
63281;BME280;49406;51.044;3.766;2024-01-25T08:09:18;103051.05;;;5.98;100.00
63281;BME280;49406;51.044;3.766;2024-01-25T08:11:53;103050.80;;;5.99;100.00
63281;BME280;49406;51.044;3.766;2024-01-25T08:14:27;103049.19;;;6.07;100.00
63281;BME280;49406;51.044;3.766;2024-01-25T08:17:02;103047.95;;;6.12;100.00
63281;BME280;49406;51.044;3.766;2024-01-25T08:19:35;103051.33;;;6.19;100.00
63281;BME280;49406;51.044;3.766;2024-01-25T08:22:10;103053.20;;;6.27;100.00
63281;BME280;49406;51.044;3.766;2024-01-25T08:24:44;103057.78;;;6.31;100.00
63281;BME280;49406;51.044;3.766;2024-01-25T08:27:19;103055.95;;;6.47;100.00
63281;BME280;49406;51.044;3.766;2024-01-25T08:29:53;103061.07;;;6.42;100.00
63281;BME280;49406;51.044;3.766;2024-01-25T08:32:28;103058.55;;;6.35;100.00
63281;BME280;49406;51.044;3.766;2024-01-25T08:35:03;103055.54;;;6.31;100.00
63281;BME280;49406;51.044;3.766;2024-01-25T08:37:37;103052.86;;;6.33;100.00
63281;BME280;49406;51.044;3.766;2024-01-25T08:40:14;103051.15;;;6.37;100.00
63281;BME280;49406;51.044;3.766;2024-01-25T08:42:49;103051.68;;;6.33;100.00
63281;BME280;49406;51.044;3.766;2024-01-25T08:45:23;103050.06;;;6.36;100.00
63281;BME280;49406;51.044;3.766;2024-01-25T08:47:58;103054.42;;;6.44;100.00
63281;BME280;49406;51.044;3.766;2024-01-25T08:50:33;103059.75;;;6.52;100.00
63281;BME280;49406;51.044;3.766;2024-01-25T08:53:07;103061.70;;;6.58;100.00
63281;BME280;49406;51.044;3.766;2024-01-25T08:55:43;103056.69;;;6.59;100.00
63281;BME280;49406;51.044;3.766;2024-01-25T08:58:18;103056.80;;;6.61;100.00
63281;BME280;49406;51.044;3.766;2024-01-25T09:00:53;103047.63;;;6.64;100.00
63281;BME280;49406;51.044;3.766;2024-01-25T09:03:27;103048.70;;;6.73;100.00
63281;BME280;49406;51.044;3.766;2024-01-25T09:06:02;103036.52;;;6.79;100.00
63281;BME280;49406;51.044;3.766;2024-01-25T09:08:39;103025.32;;;6.81;100.00
63281;BME280;49406;51.044;3.766;2024-01-25T09:11:13;103027.73;;;6.81;100.00
63281;BME280;49406;51.044;3.766;2024-01-25T09:13:48;103020.79;;;6.84;100.00
63281;BME280;49406;51.044;3.766;2024-01-25T09:16:22;103031.16;;;6.89;100.00
63281;BME280;49406;51.044;3.766;2024-01-25T09:18:57;103035.84;;;6.91;100.00
63281;BME280;49406;51.044;3.766;2024-01-25T09:21:32;103040.59;;;6.92;100.00
63281;BME280;49406;51.044;3.766;2024-01-25T09:24:08;103035.02;;;6.95;100.00
63281;BME280;49406;51.044;3.766;2024-01-25T09:26:42;103036.19;;;7.01;100.00
63281;BME280;49406;51.044;3.766;2024-01-25T09:29:17;103031.58;;;7.05;100.00
63281;BME280;49406;51.044;3.766;2024-01-25T09:31:51;103030.64;;;7.10;100.00
63281;BME280;49406;51.044;3.766;2024-01-25T09:34:26;103026.67;;;7.17;100.00
63281;BME280;49406;51.044;3.766;2024-01-25T09:37:01;103028.42;;;7.20;100.00
63281;BME280;49406;51.044;3.766;2024-01-25T09:39:35;103030.98;;;7.22;100.00
63281;BME280;49406;51.044;3.766;2024-01-25T09:42:11;103031.51;;;7.31;100.00
63281;BME280;49406;51.044;3.766;2024-01-25T09:44:46;103023.70;;;7.38;100.00
63281;BME280;49406;51.044;3.766;2024-01-25T09:47:21;103026.11;;;7.47;100.00
63281;BME280;49406;51.044;3.766;2024-01-25T09:49:56;103033.02;;;7.55;100.00
63281;BME280;49406;51.044;3.766;2024-01-25T09:52:31;103036.30;;;7.61;100.00
63281;BME280;49406;51.044;3.766;2024-01-25T09:55:08;103030.95;;;7.68;100.00
63281;BME280;49406;51.044;3.766;2024-01-25T09:57:47;103029.23;;;7.75;100.00
63281;BME280;49406;51.044;3.766;2024-01-25T10:00:24;103026.40;;;7.77;100.00
63281;BME280;49406;51.044;3.766;2024-01-25T10:02:58;103021.41;;;7.81;100.00
63281;BME280;49406;51.044;3.766;2024-01-25T10:05:33;103020.20;;;7.88;100.00
63281;BME280;49406;51.044;3.766;2024-01-25T10:08:13;103017.61;;;7.98;100.00
63281;BME280;49406;51.044;3.766;2024-01-25T10:10:49;103016.15;;;8.07;100.00
63281;BME280;49406;51.044;3.766;2024-01-25T10:13:27;103021.61;;;8.11;100.00
63281;BME280;49406;51.044;3.766;2024-01-25T10:16:01;103018.70;;;8.19;100.00
63281;BME280;49406;51.044;3.766;2024-01-25T10:18:36;103020.61;;;8.29;100.00
63281;BME280;49406;51.044;3.766;2024-01-25T10:21:12;103018.02;;;8.38;100.00
63281;BME280;49406;51.044;3.766;2024-01-25T10:23:47;103015.66;;;8.43;100.00
63281;BME280;49406;51.044;3.766;2024-01-25T10:26:25;103014.17;;;8.48;100.00
63281;BME280;49406;51.044;3.766;2024-01-25T10:29:02;103014.41;;;8.56;100.00
63281;BME280;49406;51.044;3.766;2024-01-25T10:31:38;103013.41;;;8.64;100.00
63281;BME280;49406;51.044;3.766;2024-01-25T10:34:15;103010.33;;;8.69;100.00
63281;BME280;49406;51.044;3.766;2024-01-25T10:36:51;103014.73;;;8.73;100.00
63281;BME280;49406;51.044;3.766;2024-01-25T10:39:26;103013.55;;;8.81;100.00
63281;BME280;49406;51.044;3.766;2024-01-25T10:42:03;103010.30;;;8.86;100.00
63281;BME280;49406;51.044;3.766;2024-01-25T10:44:39;103003.34;;;8.90;100.00
63281;BME280;49406;51.044;3.766;2024-01-25T10:47:13;102998.80;;;8.96;100.00
63281;BME280;49406;51.044;3.766;2024-01-25T10:49:50;102998.06;;;9.03;100.00
63281;BME280;49406;51.044;3.766;2024-01-25T10:52:25;102995.30;;;8.99;100.00
63281;BME280;49406;51.044;3.766;2024-01-25T10:55:01;102991.37;;;9.01;100.00
63281;BME280;49406;51.044;3.766;2024-01-25T10:57:39;102988.80;;;9.06;100.00
63281;BME280;49406;51.044;3.766;2024-01-25T11:00:16;102983.23;;;9.17;100.00
63281;BME280;49406;51.044;3.766;2024-01-25T11:02:52;102975.84;;;9.23;100.00
63281;BME280;49406;51.044;3.766;2024-01-25T11:05:27;102971.85;;;9.30;100.00
63281;BME280;49406;51.044;3.766;2024-01-25T11:08:01;102975.92;;;9.40;100.00
63281;BME280;49406;51.044;3.766;2024-01-25T11:10:38;102967.45;;;9.49;100.00
63281;BME280;49406;51.044;3.766;2024-01-25T11:13:15;102964.98;;;9.56;100.00
63281;BME280;49406;51.044;3.766;2024-01-25T11:15:50;102961.23;;;9.58;100.00
63281;BME280;49406;51.044;3.766;2024-01-25T11:18:27;102957.23;;;9.58;100.00
63281;BME280;49406;51.044;3.766;2024-01-25T11:21:02;102953.75;;;9.55;100.00
63281;BME280;49406;51.044;3.766;2024-01-25T11:23:44;102948.59;;;9.56;100.00
63281;BME280;49406;51.044;3.766;2024-01-25T11:26:19;102946.25;;;9.62;100.00
63281;BME280;49406;51.044;3.766;2024-01-25T11:28:58;102945.14;;;9.69;100.00
63281;BME280;49406;51.044;3.766;2024-01-25T11:31:33;102945.02;;;9.70;100.00
63281;BME280;49406;51.044;3.766;2024-01-25T11:34:09;102939.73;;;9.73;100.00
63281;BME280;49406;51.044;3.766;2024-01-25T11:36:45;102933.44;;;9.84;100.00
63281;BME280;49406;51.044;3.766;2024-01-25T11:39:19;102930.38;;;9.86;100.00
63281;BME280;49406;51.044;3.766;2024-01-25T11:41:55;102923.61;;;9.87;100.00
63281;BME280;49406;51.044;3.766;2024-01-25T11:44:30;102916.82;;;9.88;100.00
63281;BME280;49406;51.044;3.766;2024-01-25T11:47:05;102916.53;;;9.93;100.00
63281;BME280;49406;51.044;3.766;2024-01-25T11:49:42;102906.78;;;9.98;100.00
63281;BME280;49406;51.044;3.766;2024-01-25T11:52:17;102908.61;;;10.04;100.00
63281;BME280;49406;51.044;3.766;2024-01-25T11:54:51;102898.66;;;10.00;100.00
63281;BME280;49406;51.044;3.766;2024-01-25T11:57:26;102890.36;;;10.02;100.00
63281;BME280;49406;51.044;3.766;2024-01-25T12:00:01;102883.85;;;10.06;100.00
63281;BME280;49406;51.044;3.766;2024-01-25T12:02:38;102878.37;;;10.12;100.00
63281;BME280;49406;51.044;3.766;2024-01-25T12:05:12;102879.52;;;10.18;100.00
63281;BME280;49406;51.044;3.766;2024-01-25T12:07:47;102872.94;;;10.24;100.00
63281;BME280;49406;51.044;3.766;2024-01-25T12:10:22;102864.52;;;10.27;100.00
63281;BME280;49406;51.044;3.766;2024-01-25T12:12:59;102863.80;;;10.26;100.00
63281;BME280;49406;51.044;3.766;2024-01-25T12:15:34;102852.99;;;10.19;100.00
63281;BME280;49406;51.044;3.766;2024-01-25T12:18:09;102862.20;;;10.26;100.00
63281;BME280;49406;51.044;3.766;2024-01-25T12:20:44;102859.58;;;10.25;100.00
63281;BME280;49406;51.044;3.766;2024-01-25T12:23:19;102852.96;;;10.26;100.00
63281;BME280;49406;51.044;3.766;2024-01-25T12:25:54;102847.81;;;10.29;100.00
63281;BME280;49406;51.044;3.766;2024-01-25T12:28:29;102842.59;;;10.33;100.00
63281;BME280;49406;51.044;3.766;2024-01-25T12:31:05;102835.71;;;10.36;100.00
63281;BME280;49406;51.044;3.766;2024-01-25T12:33:43;102822.87;;;10.38;100.00
63281;BME280;49406;51.044;3.766;2024-01-25T12:36:17;102820.41;;;10.46;100.00
63281;BME280;49406;51.044;3.766;2024-01-25T12:38:52;102811.90;;;10.53;100.00
63281;BME280;49406;51.044;3.766;2024-01-25T12:41:26;102807.30;;;10.56;100.00
63281;BME280;49406;51.044;3.766;2024-01-25T12:44:01;102811.02;;;10.61;100.00
63281;BME280;49406;51.044;3.766;2024-01-25T12:46:37;102806.61;;;10.70;100.00
63281;BME280;49406;51.044;3.766;2024-01-25T12:49:11;102805.45;;;10.80;100.00
63281;BME280;49406;51.044;3.766;2024-01-25T12:51:46;102792.91;;;10.86;100.00
63281;BME280;49406;51.044;3.766;2024-01-25T12:54:20;102782.38;;;10.91;100.00
63281;BME280;49406;51.044;3.766;2024-01-25T12:56:55;102779.02;;;10.93;100.00
63281;BME280;49406;51.044;3.766;2024-01-25T12:59:30;102777.39;;;10.92;100.00
63281;BME280;49406;51.044;3.766;2024-01-25T13:02:03;102773.25;;;10.89;100.00
63281;BME280;49406;51.044;3.766;2024-01-25T13:04:38;102772.25;;;11.04;100.00
63281;BME280;49406;51.044;3.766;2024-01-25T13:07:12;102764.19;;;11.14;100.00
63281;BME280;49406;51.044;3.766;2024-01-25T13:09:47;102767.27;;;11.17;100.00
63281;BME280;49406;51.044;3.766;2024-01-25T13:12:21;102762.56;;;11.17;100.00
63281;BME280;49406;51.044;3.766;2024-01-25T13:14:56;102752.90;;;11.22;100.00
63281;BME280;49406;51.044;3.766;2024-01-25T13:17:30;102752.13;;;11.25;100.00
63281;BME280;49406;51.044;3.766;2024-01-25T13:20:06;102754.62;;;11.25;100.00
63281;BME280;49406;51.044;3.766;2024-01-25T13:22:41;102764.83;;;11.26;100.00
63281;BME280;49406;51.044;3.766;2024-01-25T13:25:16;102765.93;;;11.19;100.00
63281;BME280;49406;51.044;3.766;2024-01-25T13:27:50;102767.32;;;11.13;100.00